Time;durP1;ratioP1;P1;durP2;ratioP2;P2;SDS_P1;SDS_P2;PMS_P1;PMS_P2;Temp;Humidity;BMP_temperature;BMP_pressure;BME280_temperature;BME280_humidity;BME280_pressure;Samples;Min_cycle;Max_cycle;Signal;HPM_P1;HPM_P2
2023/01/30 00:01:50;;;;;;;;;;;16.60;48.80;;;;;;5084039;28;19915;-17
2023/01/30 00:04:16;;;;;;;;;;;16.60;48.80;;;;;;5101593;28;19914;-16
2023/01/30 00:06:41;;;;;;;;;;;16.50;48.70;;;;;;5101552;28;19912;-18
2023/01/30 00:09:09;;;;;;;;;;;16.50;48.70;;;;;;5101691;28;20312;-17
2023/01/30 00:11:41;;;;;;;;;;;16.50;48.70;;;;;;5116748;28;19952;-17
2023/01/30 00:14:07;;;;;;;;;;;16.50;48.70;;;;;;5117410;28;19911;-17
2023/01/30 00:16:32;;;;;;;;;;;16.50;48.70;;;;;;5101490;28;19908;-16
2023/01/30 00:18:58;;;;;;;;;;;16.50;48.80;;;;;;5082231;28;19916;-18
2023/01/30 00:21:23;;;;;;;;;;;16.50;48.80;;;;;;5117665;28;20014;-16
2023/01/30 00:23:49;;;;;;;;;;;16.40;48.70;;;;;;5101100;28;19931;-19
2023/01/30 00:26:17;;;;;;;;;;;16.40;48.80;;;;;;5101247;28;19908;-16
2023/01/30 00:28:45;;;;;;;;;;;16.40;48.80;;;;;;5100694;28;20002;-15
2023/01/30 00:31:11;;;;;;;;;;;16.40;48.70;;;;;;5100706;28;19923;-17
2023/01/30 00:33:37;;;;;;;;;;;16.40;48.80;;;;;;5110781;28;19912;-15
2023/01/30 00:36:03;;;;;;;;;;;16.40;48.80;;;;;;5121190;28;20311;-17
2023/01/30 00:38:36;;;;;;;;;;;16.30;48.80;;;;;;5120746;28;19907;-15
2023/01/30 00:41:02;;;;;;;;;;;16.30;48.80;;;;;;5121378;28;20292;-18
2023/01/30 00:47:21;;;;;;;;;;;16.30;48.80;;;;;;5121074;28;19923;-18
2023/01/30 00:49:16;;;;;;;;;;;16.30;48.80;;;;;;5107782;28;19961;-18
2023/01/30 00:51:42;;;;;;;;;;;16.20;48.80;;;;;;5120802;28;19920;-16
2023/01/30 00:54:22;;;;;;;;;;;16.20;48.90;;;;;;5120301;28;19939;-18
2023/01/30 00:56:51;;;;;;;;;;;16.20;48.90;;;;;;5121432;28;19908;-17
2023/01/30 00:59:16;;;;;;;;;;;16.20;48.90;;;;;;5103630;28;19912;-15
2023/01/30 01:01:42;;;;;;;;;;;16.20;48.90;;;;;;5121120;28;19980;-17
2023/01/30 01:04:10;;;;;;;;;;;16.20;48.90;;;;;;5102943;28;20392;-15
2023/01/30 01:06:38;;;;;;;;;;;16.20;49.00;;;;;;5121088;28;19998;-17
2023/01/30 01:09:04;;;;;;;;;;;16.10;49.00;;;;;;5121105;28;20265;-16
2023/01/30 01:11:29;;;;;;;;;;;16.10;49.00;;;;;;5102765;28;20037;-19
2023/01/30 01:14:01;;;;;;;;;;;16.10;49.00;;;;;;5120418;28;19911;-15
2023/01/30 01:16:27;;;;;;;;;;;16.10;49.00;;;;;;5120439;28;19908;-14
2023/01/30 01:18:53;;;;;;;;;;;16.10;49.00;;;;;;5120919;28;19919;-16
2023/01/30 01:21:19;;;;;;;;;;;16.10;49.00;;;;;;5121101;28;19914;-17
2023/01/30 01:23:55;;;;;;;;;;;16.10;49.00;;;;;;5121715;28;19926;-16
2023/01/30 01:26:21;;;;;;;;;;;16.10;49.00;;;;;;5121032;28;20014;-18
2023/01/30 01:28:47;;;;;;;;;;;16.10;49.00;;;;;;5103435;28;20056;-16
2023/01/30 01:31:14;;;;;;;;;;;16.10;49.00;;;;;;5100436;22;20042;-17
2023/01/30 01:33:39;;;;;;;;;;;16.10;49.00;;;;;;5081827;28;19918;-17
2023/01/30 01:36:05;;;;;;;;;;;16.00;48.90;;;;;;5116971;28;19998;-16
2023/01/30 01:38:30;;;;;;;;;;;16.00;49.10;;;;;;5100187;28;20339;-18
2023/01/30 01:41:16;;;;;;;;;;;16.10;49.00;;;;;;5099734;28;19960;-18
2023/01/30 01:44:03;;;;;;;;;;;16.00;49.00;;;;;;5082517;28;19908;-15
2023/01/30 01:47:05;;;;;;;;;;;16.00;49.00;;;;;;5115797;28;19969;-18
2023/01/30 01:49:32;;;;;;;;;;;16.00;49.00;;;;;;5020825;28;19920;-18
2023/01/30 01:52:02;;;;;;;;;;;16.00;49.00;;;;;;5070538;28;19949;-19
2023/01/30 01:54:30;;;;;;;;;;;16.00;49.00;;;;;;5099150;28;19912;-18
2023/01/30 01:57:11;;;;;;;;;;;16.00;49.00;;;;;;5115142;28;19908;-17
2023/01/30 01:59:39;;;;;;;;;;;16.00;49.00;;;;;;5081640;28;19923;-16
2023/01/30 02:02:07;;;;;;;;;;;15.90;49.00;;;;;;5081676;28;19908;-15
2023/01/30 02:05:00;;;;;;;;;;;15.90;49.00;;;;;;5081512;28;19912;-18
2023/01/30 02:07:28;;;;;;;;;;;15.90;49.00;;;;;;5080772;28;19909;-17
2023/01/30 02:09:54;;;;;;;;;;;15.90;49.00;;;;;;5098492;28;19923;-18
2023/01/30 02:12:20;;;;;;;;;;;15.90;49.00;;;;;;5080854;28;19908;-18
2023/01/30 02:14:46;;;;;;;;;;;15.90;49.00;;;;;;5098674;28;20014;-16
2023/01/30 02:17:11;;;;;;;;;;;15.90;49.00;;;;;;5099515;28;20408;-15
2023/01/30 02:19:56;;;;;;;;;;;15.90;49.00;;;;;;5115407;28;19908;-17
2023/01/30 02:22:45;;;;;;;;;;;15.90;49.10;;;;;;5115463;28;20434;-17
2023/01/30 02:25:11;;;;;;;;;;;15.80;49.00;;;;;;5098770;28;19908;-14
2023/01/30 02:27:55;;;;;;;;;;;15.90;49.10;;;;;;5099061;28;19908;-19
2023/01/30 02:30:43;;;;;;;;;;;15.80;49.00;;;;;;5098465;28;19966;-18
2023/01/30 02:33:12;;;;;;;;;;;15.90;49.10;;;;;;5081499;28;19912;-18
2023/01/30 02:35:46;;;;;;;;;;;15.80;49.10;;;;;;5098599;28;19912;-16
2023/01/30 02:38:18;;;;;;;;;;;15.80;49.10;;;;;;5098814;28;20329;-18
2023/01/30 02:41:02;;;;;;;;;;;15.80;49.10;;;;;;5098244;28;19998;-15
2023/01/30 02:43:47;;;;;;;;;;;15.80;49.10;;;;;;5080711;28;19908;-18
2023/01/30 02:46:12;;;;;;;;;;;15.80;49.10;;;;;;5080937;28;19935;-17
2023/01/30 02:49:07;;;;;;;;;;;15.80;49.10;;;;;;5098641;28;20275;-15
2023/01/30 02:51:33;;;;;;;;;;;15.80;49.10;;;;;;5098786;28;19909;-18
2023/01/30 02:53:59;;;;;;;;;;;15.70;49.10;;;;;;5114699;28;19923;-19
2023/01/30 02:56:25;;;;;;;;;;;15.70;49.10;;;;;;5114762;28;19908;-19
2023/01/30 02:59:05;;;;;;;;;;;15.70;49.20;;;;;;5098679;28;19918;-19
2023/01/30 03:01:43;;;;;;;;;;;15.70;49.20;;;;;;5080796;28;19908;-17
2023/01/30 03:04:44;;;;;;;;;;;15.70;49.20;;;;;;5098543;28;19944;-17
2023/01/30 03:07:16;;;;;;;;;;;15.70;49.20;;;;;;5048588;28;19909;-18
2023/01/30 03:09:57;;;;;;;;;;;15.70;49.20;;;;;;5098019;28;20007;-17
2023/01/30 03:12:37;;;;;;;;;;;15.60;49.20;;;;;;5114255;28;19954;-17
2023/01/30 03:15:16;;;;;;;;;;;15.70;49.30;;;;;;5098009;28;19977;-17
2023/01/30 03:17:43;;;;;;;;;;;15.60;49.20;;;;;;5098122;28;20025;-16
2023/01/30 03:20:09;;;;;;;;;;;15.60;49.30;;;;;;5114535;28;19919;-16
2023/01/30 03:22:35;;;;;;;;;;;15.60;49.30;;;;;;5080731;28;19912;-16
2023/01/30 03:25:00;;;;;;;;;;;15.60;49.70;;;;;;5097834;28;19909;-18
2023/01/30 03:27:31;;;;;;;;;;;15.60;49.30;;;;;;5114439;28;19908;-17
2023/01/30 03:30:00;;;;;;;;;;;15.50;49.30;;;;;;5098198;28;19908;-17
2023/01/30 03:32:28;;;;;;;;;;;15.50;49.40;;;;;;5098287;28;19927;-17
2023/01/30 03:34:57;;;;;;;;;;;15.50;49.40;;;;;;5098669;28;20173;-15
2023/01/30 03:37:43;;;;;;;;;;;15.50;49.40;;;;;;5080703;28;19974;-15
2023/01/30 03:40:10;;;;;;;;;;;15.50;49.40;;;;;;5081576;28;19919;-18
2023/01/30 03:42:36;;;;;;;;;;;15.40;49.40;;;;;;5115001;28;20257;-15
2023/01/30 03:45:01;;;;;;;;;;;15.40;49.50;;;;;;5115054;28;19908;-17
2023/01/30 03:47:36;;;;;;;;;;;15.40;49.50;;;;;;5098089;28;19940;-16
2023/01/30 03:50:04;;;;;;;;;;;15.30;49.60;;;;;;5098204;28;19909;-14
2023/01/30 03:52:32;;;;;;;;;;;15.30;49.60;;;;;;5098457;28;20006;-15
2023/01/30 03:54:58;;;;;;;;;;;15.30;49.60;;;;;;5080502;28;20292;-17
2023/01/30 03:57:23;;;;;;;;;;;15.20;49.70;;;;;;5080237;28;19962;-18
2023/01/30 03:59:51;;;;;;;;;;;15.20;49.70;;;;;;5098101;28;19904;-15
2023/01/30 04:02:21;;;;;;;;;;;15.10;49.70;;;;;;5097759;28;19919;-17
2023/01/30 04:04:49;;;;;;;;;;;15.10;49.80;;;;;;5114318;28;19908;-13
2023/01/30 04:07:15;;;;;;;;;;;15.10;49.90;;;;;;5097522;28;19934;-17
2023/01/30 04:09:40;;;;;;;;;;;15.20;50.00;;;;;;5093248;28;19908;-18
2023/01/30 04:12:06;;;;;;;;;;;15.80;49.30;;;;;;5077155;28;20376;-18
2023/01/30 04:14:45;;;;;;;;;;;16.50;48.40;;;;;;5077702;28;19912;-18
2023/01/30 04:17:13;;;;;;;;;;;16.90;47.70;;;;;;5100272;22;19953;-18
2023/01/30 04:19:39;;;;;;;;;;;17.30;47.20;;;;;;5097331;28;19908;-17
2023/01/30 04:22:04;;;;;;;;;;;17.60;46.80;;;;;;5113332;28;19924;-17
2023/01/30 04:24:39;;;;;;;;;;;17.80;46.40;;;;;;5097465;28;19935;-18
2023/01/30 04:27:04;;;;;;;;;;;18.10;46.20;;;;;;5097407;28;19908;-18
2023/01/30 04:29:30;;;;;;;;;;;18.20;46.00;;;;;;5115500;28;19931;-20
2023/01/30 04:31:55;;;;;;;;;;;18.30;45.80;;;;;;5117238;28;19914;-19
2023/01/30 04:34:36;;;;;;;;;;;18.40;45.70;;;;;;5100954;28;20339;-17
2023/01/30 04:37:02;;;;;;;;;;;18.60;45.60;;;;;;5117182;28;20272;-19
2023/01/30 04:39:27;;;;;;;;;;;18.70;45.50;;;;;;5100804;28;19908;-20
2023/01/30 04:41:56;;;;;;;;;;;18.80;45.30;;;;;;5082825;28;19908;-18
2023/01/30 04:44:32;;;;;;;;;;;18.90;45.20;;;;;;5100018;28;19939;-18
2023/01/30 04:46:57;;;;;;;;;;;19.00;45.30;;;;;;5100868;28;20235;-19
2023/01/30 04:49:23;;;;;;;;;;;18.90;45.20;;;;;;5101529;28;20285;-17
2023/01/30 04:51:51;;;;;;;;;;;19.00;45.20;;;;;;5103241;28;19930;-19
2023/01/30 04:54:36;;;;;;;;;;;19.00;45.10;;;;;;5102720;28;20304;-17
2023/01/30 04:57:01;;;;;;;;;;;19.10;45.10;;;;;;5120420;28;19908;-18
2023/01/30 04:59:27;;;;;;;;;;;19.20;45.10;;;;;;5086141;28;19926;-19
2023/01/30 05:01:53;;;;;;;;;;;19.10;45.10;;;;;;5120735;28;19908;-17
2023/01/30 05:04:20;;;;;;;;;;;19.20;45.10;;;;;;5120724;28;19908;-16
2023/01/30 05:06:45;;;;;;;;;;;19.20;45.00;;;;;;5120934;28;20002;-19
2023/01/30 05:09:11;;;;;;;;;;;19.20;45.10;;;;;;5120101;28;19994;-20
2023/01/30 05:11:36;;;;;;;;;;;19.20;45.10;;;;;;5121009;28;19956;-19
2023/01/30 05:14:11;;;;;;;;;;;19.20;45.20;;;;;;5103207;28;20014;-18
2023/01/30 05:16:40;;;;;;;;;;;19.10;45.20;;;;;;5120741;28;19968;-18
2023/01/30 05:19:05;;;;;;;;;;;19.10;45.30;;;;;;5120770;28;19908;-18
2023/01/30 05:21:31;;;;;;;;;;;19.00;45.40;;;;;;5102583;28;19969;-18
2023/01/30 05:23:59;;;;;;;;;;;18.90;45.50;;;;;;5120339;28;19973;-19
2023/01/30 05:26:25;;;;;;;;;;;18.70;45.60;;;;;;5102481;28;19942;-19
2023/01/30 05:28:54;;;;;;;;;;;18.60;45.70;;;;;;5102480;28;19994;-19
2023/01/30 05:31:23;;;;;;;;;;;18.50;45.90;;;;;;5120528;28;20419;-18
2023/01/30 05:33:51;;;;;;;;;;;18.40;46.00;;;;;;5103018;28;19968;-18
2023/01/30 05:36:17;;;;;;;;;;;18.30;46.20;;;;;;5120350;28;19998;-16
2023/01/30 05:38:43;;;;;;;;;;;18.20;46.30;;;;;;5102620;28;19964;-18
2023/01/30 05:41:09;;;;;;;;;;;18.10;46.40;;;;;;5119732;28;20006;-17
2023/01/30 05:44:07;;;;;;;;;;;18.00;46.50;;;;;;5120505;28;20431;-19
2023/01/30 05:46:32;;;;;;;;;;;17.90;46.60;;;;;;5095472;22;19924;-15
2023/01/30 05:49:03;;;;;;;;;;;17.90;46.70;;;;;;5098747;28;19934;-19
2023/01/30 05:51:31;;;;;;;;;;;17.80;46.80;;;;;;5081426;28;19919;-18
2023/01/30 05:53:57;;;;;;;;;;;17.80;46.80;;;;;;5098736;28;19916;-16
2023/01/30 05:56:23;;;;;;;;;;;17.80;46.90;;;;;;5081536;28;19908;-16
2023/01/30 05:58:49;;;;;;;;;;;17.90;46.80;;;;;;5098450;28;20439;-17
2023/01/30 06:01:15;;;;;;;;;;;18.00;46.70;;;;;;5098923;28;19938;-20
2023/01/30 06:03:43;;;;;;;;;;;18.10;46.50;;;;;;5081054;28;19908;-16
2023/01/30 06:06:12;;;;;;;;;;;18.30;46.50;;;;;;5098811;28;19915;-16
2023/01/30 06:08:38;;;;;;;;;;;18.50;46.20;;;;;;5099036;28;20269;-18
2023/01/30 06:11:14;;;;;;;;;;;18.60;46.00;;;;;;5098588;28;19934;-17
2023/01/30 06:13:40;;;;;;;;;;;18.70;45.90;;;;;;5081300;28;20257;-17
2023/01/30 06:16:07;;;;;;;;;;;18.80;45.90;;;;;;5099276;28;19912;-18
2023/01/30 06:18:32;;;;;;;;;;;18.80;45.90;;;;;;5081972;28;19919;-16
2023/01/30 06:21:05;;;;;;;;;;;18.80;45.80;;;;;;5099056;28;19912;-18
2023/01/30 06:23:33;;;;;;;;;;;18.90;45.70;;;;;;5098843;28;20045;-18
2023/01/30 06:26:02;;;;;;;;;;;19.00;45.70;;;;;;5099201;28;20403;-16
2023/01/30 06:28:27;;;;;;;;;;;19.10;45.60;;;;;;5114510;28;20516;-18
2023/01/30 06:30:53;;;;;;;;;;;19.10;45.50;;;;;;5069729;28;19999;-17
2023/01/30 06:33:19;;;;;;;;;;;19.10;45.60;;;;;;5060934;28;19999;-21
2023/01/30 06:35:46;;;;;;;;;;;19.20;45.70;;;;;;5059884;28;20332;-18
2023/01/30 06:38:13;;;;;;;;;;;19.20;45.90;;;;;;5078132;28;19919;-19
2023/01/30 06:40:45;;;;;;;;;;;19.20;46.00;;;;;;5077519;28;20373;-16
2023/01/30 06:43:10;;;;;;;;;;;19.20;46.20;;;;;;5077517;28;20424;-19
2023/01/30 06:45:45;;;;;;;;;;;19.10;46.20;;;;;;5074719;28;19923;-19
2023/01/30 06:48:11;;;;;;;;;;;19.10;46.30;;;;;;5076535;28;19927;-15
2023/01/30 06:50:37;;;;;;;;;;;19.10;46.40;;;;;;5077107;28;19912;-18
2023/01/30 06:53:06;;;;;;;;;;;19.00;46.50;;;;;;5058795;28;19908;-16
2023/01/30 06:55:37;;;;;;;;;;;19.10;46.70;;;;;;5076706;28;19938;-18
2023/01/30 06:58:02;;;;;;;;;;;19.10;46.70;;;;;;5059556;28;19915;-17
2023/01/30 07:00:28;;;;;;;;;;;19.10;46.80;;;;;;5059671;28;19908;-18
2023/01/30 07:02:53;;;;;;;;;;;19.00;46.90;;;;;;5059565;28;20312;-18
2023/01/30 07:05:30;;;;;;;;;;;19.00;46.90;;;;;;5076447;28;19920;-17
2023/01/30 07:07:56;;;;;;;;;;;18.90;46.90;;;;;;5076344;28;19920;-18
2023/01/30 07:10:22;;;;;;;;;;;18.90;46.90;;;;;;5077694;28;19908;-17
2023/01/30 07:12:47;;;;;;;;;;;18.90;46.90;;;;;;5058975;28;20432;-18
2023/01/30 07:15:23;;;;;;;;;;;18.90;46.90;;;;;;5058666;28;19912;-16
2023/01/30 07:17:48;;;;;;;;;;;18.90;47.00;;;;;;5076434;28;19913;-18
2023/01/30 07:20:16;;;;;;;;;;;18.90;46.90;;;;;;5058786;28;20441;-18
2023/01/30 07:22:49;;;;;;;;;;;18.90;47.00;;;;;;5075915;28;19973;-17
2023/01/30 07:25:16;;;;;;;;;;;18.80;47.00;;;;;;5059080;28;19915;-18
2023/01/30 07:27:41;;;;;;;;;;;18.80;47.10;;;;;;5058180;28;20003;-18
2023/01/30 07:30:10;;;;;;;;;;;18.80;47.20;;;;;;5058331;28;20018;-17
2023/01/30 07:32:39;;;;;;;;;;;18.60;47.20;;;;;;5075415;28;20352;-36
2023/01/30 07:35:07;;;;;;;;;;;18.50;47.40;;;;;;5075071;28;19912;-18
2023/01/30 07:37:32;;;;;;;;;;;18.30;47.60;;;;;;5058751;28;19950;-17
2023/01/30 07:39:58;;;;;;;;;;;18.20;47.80;;;;;;5058196;28;19952;-16
2023/01/30 07:42:24;;;;;;;;;;;18.10;47.90;;;;;;5076127;28;20257;-18
2023/01/30 07:44:49;;;;;;;;;;;17.90;48.60;;;;;;5076091;28;19917;-18
2023/01/30 07:47:19;;;;;;;;;;;17.70;48.80;;;;;;5076293;28;20439;-18
2023/01/30 07:49:44;;;;;;;;;;;17.60;49.00;;;;;;5075985;28;19912;-19
2023/01/30 07:52:26;;;;;;;;;;;17.50;49.10;;;;;;5058419;28;19915;-16
2023/01/30 07:54:51;;;;;;;;;;;17.40;49.20;;;;;;5058988;28;20007;-16
2023/01/30 07:57:17;;;;;;;;;;;17.20;49.30;;;;;;5058257;28;20355;-18
2023/01/30 07:59:46;;;;;;;;;;;17.10;49.40;;;;;;5075618;28;19920;-18
2023/01/30 08:02:12;;;;;;;;;;;17.00;49.60;;;;;;5076385;28;19908;-17
2023/01/30 08:04:37;;;;;;;;;;;16.90;49.60;;;;;;5060705;28;19940;-16
2023/01/30 08:07:03;;;;;;;;;;;16.80;49.80;;;;;;5079637;28;19935;-17
2023/01/30 08:09:28;;;;;;;;;;;16.80;49.90;;;;;;5079359;28;19958;-17
2023/01/30 08:11:54;;;;;;;;;;;16.70;50.00;;;;;;5062115;28;20011;-16
2023/01/30 08:14:19;;;;;;;;;;;16.60;50.10;;;;;;5079404;28;19920;-18
2023/01/30 08:16:47;;;;;;;;;;;16.50;50.10;;;;;;5062307;28;19935;-18
2023/01/30 08:19:13;;;;;;;;;;;16.50;50.10;;;;;;5079015;28;19909;-20
2023/01/30 08:21:38;;;;;;;;;;;16.50;50.20;;;;;;5079303;28;19908;-18
2023/01/30 08:24:04;;;;;;;;;;;16.50;50.10;;;;;;5078341;28;19927;-18
2023/01/30 08:26:40;;;;;;;;;;;16.40;50.10;;;;;;5078997;28;20178;-21
2023/01/30 08:29:06;;;;;;;;;;;16.30;50.50;;;;;;5079483;28;19908;-42
2023/01/30 08:31:31;;;;;;;;;;;16.30;50.20;;;;;;5078247;28;19983;-16
2023/01/30 08:33:57;;;;;;;;;;;16.30;50.20;;;;;;5078506;28;19916;-16
2023/01/30 08:36:27;;;;;;;;;;;16.30;50.20;;;;;;5078867;28;19909;-18
2023/01/30 08:38:52;;;;;;;;;;;16.20;50.20;;;;;;5079116;28;19947;-17
2023/01/30 08:41:18;;;;;;;;;;;16.10;50.30;;;;;;5061457;28;20442;-17
2023/01/30 08:43:46;;;;;;;;;;;16.10;50.40;;;;;;5060994;28;19919;-17
2023/01/30 08:46:22;;;;;;;;;;;16.00;50.50;;;;;;5062098;28;19912;-18
2023/01/30 08:48:48;;;;;;;;;;;16.00;50.70;;;;;;5080035;28;19916;-16
2023/01/30 08:51:13;;;;;;;;;;;15.90;50.70;;;;;;5062765;28;19908;-17
2023/01/30 08:53:39;;;;;;;;;;;15.90;50.80;;;;;;5061833;28;20332;-18
2023/01/30 08:56:06;;;;;;;;;;;15.90;50.90;;;;;;5079184;28;19947;-19
2023/01/30 08:58:34;;;;;;;;;;;15.80;50.90;;;;;;5059905;28;19951;-18
2023/01/30 09:01:04;;;;;;;;;;;15.80;50.90;;;;;;5078617;28;19994;-18
2023/01/30 09:03:29;;;;;;;;;;;15.80;51.00;;;;;;5061996;28;20422;-17
2023/01/30 09:05:56;;;;;;;;;;;15.70;51.00;;;;;;5061738;28;19935;-17
2023/01/30 09:08:25;;;;;;;;;;;15.70;51.10;;;;;;5061497;28;20415;-17
2023/01/30 09:10:53;;;;;;;;;;;15.60;51.20;;;;;;5078527;28;19909;-18
2023/01/30 09:13:18;;;;;;;;;;;15.60;51.30;;;;;;5061650;28;19961;-17
2023/01/30 09:15:47;;;;;;;;;;;15.60;51.30;;;;;;5077962;28;19948;-18
2023/01/30 09:18:15;;;;;;;;;;;15.60;51.40;;;;;;5079149;28;20006;-19
2023/01/30 09:20:41;;;;;;;;;;;15.60;51.40;;;;;;5078865;28;19912;-18
2023/01/30 09:23:06;;;;;;;;;;;15.60;51.50;;;;;;5078686;28;19927;-18
2023/01/30 09:25:32;;;;;;;;;;;15.50;51.50;;;;;;5078549;28;19909;-16
2023/01/30 09:27:58;;;;;;;;;;;15.50;51.60;;;;;;5078677;28;19950;-19
2023/01/30 09:30:24;;;;;;;;;;;15.40;51.60;;;;;;5078679;28;19908;-17
2023/01/30 09:32:51;;;;;;;;;;;15.50;51.60;;;;;;5061538;28;19919;-18
2023/01/30 09:35:17;;;;;;;;;;;15.40;51.60;;;;;;5078813;28;19912;-16
2023/01/30 09:37:46;;;;;;;;;;;15.40;51.60;;;;;;5078955;28;20018;-17
2023/01/30 09:40:13;;;;;;;;;;;15.40;51.70;;;;;;5078458;28;19908;-16
2023/01/30 09:42:52;;;;;;;;;;;15.40;51.70;;;;;;5078573;28;19909;-17
2023/01/30 09:45:36;;;;;;;;;;;15.40;51.80;;;;;;5061706;28;19966;-18
2023/01/30 09:48:01;;;;;;;;;;;15.30;51.90;;;;;;5076122;28;19916;-13
2023/01/30 09:50:36;;;;;;;;;;;15.30;51.80;;;;;;5051067;28;19931;-16
2023/01/30 09:53:12;;;;;;;;;;;15.30;51.90;;;;;;5051132;28;20043;-17
2023/01/30 09:55:40;;;;;;;;;;;15.30;51.90;;;;;;5068642;28;19931;-17
2023/01/30 09:58:12;;;;;;;;;;;15.40;52.00;;;;;;5069121;28;19909;-16
2023/01/30 10:00:41;;;;;;;;;;;15.50;51.70;;;;;;5068590;28;19916;-18
2023/01/30 10:03:09;;;;;;;;;;;15.40;51.70;;;;;;5049085;28;19986;-18
2023/01/30 10:05:50;;;;;;;;;;;15.40;51.80;;;;;;5050372;28;19996;-17
2023/01/30 10:08:22;;;;;;;;;;;15.30;51.80;;;;;;5069040;28;19916;-35
2023/01/30 10:10:53;;;;;;;;;;;15.30;51.90;;;;;;5050860;28;19908;-17
2023/01/30 10:13:37;;;;;;;;;;;15.30;51.90;;;;;;5050379;28;20344;-16
2023/01/30 10:16:09;;;;;;;;;;;15.20;51.90;;;;;;5048425;28;20241;-17
2023/01/30 10:18:41;;;;;;;;;;;15.20;52.10;;;;;;5067480;28;19909;-19
2023/01/30 10:21:09;;;;;;;;;;;15.20;52.10;;;;;;5049260;28;19961;-15
2023/01/30 10:23:47;;;;;;;;;;;15.10;52.10;;;;;;5049958;28;19919;-18
2023/01/30 10:26:21;;;;;;;;;;;15.10;52.10;;;;;;5049920;28;19916;-15
2023/01/30 10:28:50;;;;;;;;;;;15.10;52.20;;;;;;5066964;28;20067;-15
2023/01/30 10:31:18;;;;;;;;;;;15.10;52.20;;;;;;5067457;28;19908;-16
2023/01/30 10:33:56;;;;;;;;;;;15.10;52.20;;;;;;5049215;28;19916;-16
2023/01/30 10:36:26;;;;;;;;;;;15.10;52.10;;;;;;5067959;28;19916;-17
2023/01/30 10:38:56;;;;;;;;;;;15.10;52.20;;;;;;5049847;28;20459;-18
2023/01/30 10:41:40;;;;;;;;;;;15.10;52.10;;;;;;5049143;28;20404;-18
2023/01/30 10:44:13;;;;;;;;;;;15.10;52.10;;;;;;5065783;28;20277;-17
2023/01/30 10:46:42;;;;;;;;;;;15.10;52.20;;;;;;5048194;28;20184;-17
2023/01/30 10:49:14;;;;;;;;;;;15.10;52.20;;;;;;5068500;28;19974;-18
2023/01/30 10:51:58;;;;;;;;;;;15.10;52.20;;;;;;5067802;28;19920;-16
2023/01/30 10:54:27;;;;;;;;;;;15.10;52.20;;;;;;5066191;28;20191;-17
2023/01/30 10:57:11;;;;;;;;;;;15.00;52.20;;;;;;5047810;28;20423;-18
2023/01/30 10:59:58;;;;;;;;;;;15.00;52.30;;;;;;5047117;28;19966;-17
2023/01/30 11:02:42;;;;;;;;;;;15.00;52.30;;;;;;5068260;28;19908;-17
2023/01/30 11:05:13;;;;;;;;;;;15.00;52.30;;;;;;5075777;28;20014;-17
2023/01/30 11:07:42;;;;;;;;;;;15.00;52.40;;;;;;5075184;28;19971;-19
2023/01/30 11:10:17;;;;;;;;;;;15.00;52.60;;;;;;5063699;28;20305;-18
2023/01/30 11:12:43;;;;;;;;;;;15.00;52.80;;;;;;5048175;28;19970;-23
2023/01/30 11:15:10;;;;;;;;;;;15.00;52.80;;;;;;5048929;28;20172;-17
2023/01/30 11:17:37;;;;;;;;;;;15.00;52.80;;;;;;5050453;28;19909;-17
2023/01/30 11:20:06;;;;;;;;;;;15.00;52.70;;;;;;5059139;28;19952;-16
2023/01/30 11:22:33;;;;;;;;;;;15.00;52.80;;;;;;5058408;28;20273;-18
2023/01/30 11:25:01;;;;;;;;;;;15.00;52.80;;;;;;5048233;28;19961;-18
2023/01/30 11:27:28;;;;;;;;;;;15.00;52.90;;;;;;5047487;28;20113;-18
2023/01/30 11:30:03;;;;;;;;;;;15.00;53.00;;;;;;5048216;28;19909;-19
2023/01/30 11:32:28;;;;;;;;;;;15.00;53.10;;;;;;5048371;28;20007;-16
2023/01/30 11:35:06;;;;;;;;;;;14.90;53.10;;;;;;5054395;28;20324;-17
2023/01/30 11:37:34;;;;;;;;;;;14.90;53.30;;;;;;5076077;28;19908;-17
2023/01/30 11:40:25;;;;;;;;;;;14.90;53.30;;;;;;5062939;28;19940;-15
2023/01/30 11:42:58;;;;;;;;;;;14.90;53.20;;;;;;5069476;28;20386;-17
2023/01/30 11:45:25;;;;;;;;;;;14.90;53.10;;;;;;5080328;28;19919;-16
2023/01/30 11:48:02;;;;;;;;;;;14.90;53.20;;;;;;5073411;28;20304;-17
2023/01/30 11:50:33;;;;;;;;;;;14.90;53.20;;;;;;5063650;28;19920;-18
2023/01/30 11:53:01;;;;;;;;;;;14.90;53.20;;;;;;5062154;28;19912;-18
2023/01/30 11:55:27;;;;;;;;;;;14.90;53.20;;;;;;5038750;28;19935;-21
2023/01/30 11:57:57;;;;;;;;;;;14.90;53.20;;;;;;5070567;28;19908;-15
2023/01/30 12:00:26;;;;;;;;;;;14.90;53.20;;;;;;5073098;28;20477;-16
2023/01/30 12:02:52;;;;;;;;;;;14.90;53.30;;;;;;5048249;28;20032;-17
2023/01/30 12:05:41;;;;;;;;;;;14.90;53.30;;;;;;5047591;28;20074;-18
2023/01/30 12:08:18;;;;;;;;;;;14.90;53.30;;;;;;5055435;28;19916;-15
2023/01/30 12:10:45;;;;;;;;;;;14.90;53.40;;;;;;5060531;28;19915;-16
2023/01/30 12:13:32;;;;;;;;;;;14.80;53.30;;;;;;5078116;28;19912;-18
2023/01/30 12:16:05;;;;;;;;;;;14.80;53.40;;;;;;5075686;28;19916;-15
2023/01/30 12:18:35;;;;;;;;;;;14.90;53.60;;;;;;5075037;28;19978;-18
2023/01/30 12:21:02;;;;;;;;;;;14.90;53.50;;;;;;5077820;28;19909;-16
2023/01/30 12:23:39;;;;;;;;;;;14.90;55.10;;;;;;5094531;28;19923;-18
2023/01/30 12:26:17;;;;;;;;;;;15.00;56.30;;;;;;5093793;28;19909;-18
2023/01/30 12:28:46;;;;;;;;;;;15.00;55.50;;;;;;5077737;28;19919;-19
2023/01/30 12:31:18;;;;;;;;;;;15.00;55.40;;;;;;5075950;28;20009;-18
2023/01/30 12:33:44;;;;;;;;;;;15.00;55.40;;;;;;5058383;28;19974;-18
2023/01/30 12:36:29;;;;;;;;;;;15.00;55.30;;;;;;5077164;28;19997;-17
2023/01/30 12:39:00;;;;;;;;;;;15.00;55.00;;;;;;5060206;28;19912;-15
2023/01/30 12:41:26;;;;;;;;;;;15.00;54.90;;;;;;5078208;28;19913;-16
2023/01/30 12:44:20;;;;;;;;;;;15.00;54.70;;;;;;5060295;28;19961;-17
2023/01/30 12:46:45;;;;;;;;;;;15.00;54.60;;;;;;5078773;28;19920;-14
2023/01/30 12:49:29;;;;;;;;;;;15.00;54.50;;;;;;5061266;28;19917;-18
2023/01/30 12:52:14;;;;;;;;;;;15.00;54.50;;;;;;5079606;28;19919;-17
2023/01/30 12:54:58;;;;;;;;;;;15.00;54.70;;;;;;5079230;28;19921;-18
2023/01/30 12:57:45;;;;;;;;;;;15.00;54.70;;;;;;5077760;28;20177;-19
2023/01/30 13:00:31;;;;;;;;;;;15.00;54.60;;;;;;5077899;28;19973;-15
2023/01/30 13:03:16;;;;;;;;;;;15.00;54.60;;;;;;5078562;28;20173;-19
2023/01/30 13:05:49;;;;;;;;;;;15.00;54.60;;;;;;5094297;28;19909;-18
2023/01/30 13:08:25;;;;;;;;;;;15.00;54.60;;;;;;5078181;28;20269;-15
2023/01/30 13:11:00;;;;;;;;;;;15.00;54.70;;;;;;5077420;28;20208;-18
2023/01/30 13:13:41;;;;;;;;;;;15.00;54.60;;;;;;5061366;28;20416;-18
2023/01/30 13:16:27;;;;;;;;;;;15.00;54.60;;;;;;5060321;28;19923;-18
2023/01/30 13:19:03;;;;;;;;;;;15.00;54.60;;;;;;5077707;28;19908;-21
2023/01/30 13:21:33;;;;;;;;;;;14.90;54.60;;;;;;5077085;28;20007;-18
2023/01/30 13:24:11;;;;;;;;;;;15.00;54.60;;;;;;5087919;28;20136;-19
2023/01/30 13:26:38;;;;;;;;;;;15.00;54.60;;;;;;5082380;28;19978;-15
2023/01/30 13:29:08;;;;;;;;;;;14.90;54.50;;;;;;5083202;28;20164;-27
2023/01/30 13:31:37;;;;;;;;;;;14.90;54.50;;;;;;5068803;28;20022;-17
2023/01/30 13:34:03;;;;;;;;;;;14.90;54.50;;;;;;5049937;28;19919;-16
2023/01/30 13:36:48;;;;;;;;;;;15.00;54.50;;;;;;5068914;28;19926;-15
2023/01/30 13:39:16;;;;;;;;;;;15.00;54.40;;;;;;5068871;28;19912;-16
2023/01/30 13:41:47;;;;;;;;;;;15.10;54.30;;;;;;5068586;28;19943;-18
2023/01/30 13:44:19;;;;;;;;;;;15.20;54.20;;;;;;5051162;28;19955;-16
2023/01/30 13:46:45;;;;;;;;;;;15.20;54.00;;;;;;5066506;28;19939;-17
2023/01/30 13:49:10;;;;;;;;;;;15.30;53.90;;;;;;5065906;28;20069;-18
2023/01/30 13:52:12;;;;;;;;;;;15.40;53.70;;;;;;5064088;28;19915;-18
2023/01/30 13:54:41;;;;;;;;;;;15.50;53.60;;;;;;5043739;28;19923;-16
2023/01/30 13:57:06;;;;;;;;;;;15.50;53.50;;;;;;5060831;28;19908;-16
2023/01/30 13:59:42;;;;;;;;;;;15.60;53.40;;;;;;5046509;28;20057;-17
2023/01/30 14:02:15;;;;;;;;;;;15.70;53.30;;;;;;5046336;28;19923;-16
2023/01/30 14:04:44;;;;;;;;;;;15.80;53.20;;;;;;5049009;28;19985;-18
2023/01/30 14:07:24;;;;;;;;;;;15.80;53.00;;;;;;5064684;28;19908;-18
2023/01/30 14:10:05;;;;;;;;;;;15.90;52.80;;;;;;5046674;28;19909;-18
2023/01/30 14:12:34;;;;;;;;;;;16.00;52.70;;;;;;5046284;28;19908;-18
2023/01/30 14:15:02;;;;;;;;;;;16.10;52.60;;;;;;5046977;28;19969;-18
2023/01/30 14:17:28;;;;;;;;;;;16.00;52.50;;;;;;5044649;28;20255;-17
2023/01/30 14:19:57;;;;;;;;;;;16.10;52.50;;;;;;5047881;28;20148;-17
2023/01/30 14:22:25;;;;;;;;;;;16.10;52.50;;;;;;5064868;28;19948;-16
2023/01/30 14:25:12;;;;;;;;;;;16.10;52.40;;;;;;5049204;28;20293;-17
2023/01/30 14:27:40;;;;;;;;;;;16.20;52.40;;;;;;5076169;28;19923;-19
2023/01/30 14:30:24;;;;;;;;;;;16.20;52.40;;;;;;5076218;28;19967;-18
2023/01/30 14:32:58;;;;;;;;;;;16.20;52.40;;;;;;5059525;28;19987;-18
2023/01/30 14:35:24;;;;;;;;;;;16.20;52.40;;;;;;5076268;28;19924;-17
2023/01/30 14:38:02;;;;;;;;;;;16.20;52.30;;;;;;5068457;28;19909;-18
2023/01/30 14:40:30;;;;;;;;;;;16.30;52.30;;;;;;5048532;28;20436;-18